createdAt,value
2024-03-04T00:02:00.734Z,74.01
2024-03-04T00:04:28.525Z,74.15
2024-03-04T00:06:56.328Z,74.20
2024-03-04T00:09:23.854Z,74.32
2024-03-04T00:11:51.509Z,74.40
2024-03-04T00:14:19.181Z,74.45
2024-03-04T00:16:47.143Z,74.43
2024-03-04T00:19:14.785Z,74.48
2024-03-04T00:21:42.582Z,74.42
2024-03-04T00:24:10.228Z,74.60
2024-03-04T00:26:37.798Z,74.80
2024-03-04T00:29:05.452Z,74.76
2024-03-04T00:31:33.082Z,74.76
2024-03-04T00:34:00.871Z,74.76
2024-03-04T00:36:28.538Z,74.74
2024-03-04T00:38:56.719Z,74.68
2024-03-04T00:41:24.681Z,74.76
2024-03-04T00:43:52.341Z,74.81
2024-03-04T00:46:19.938Z,74.99
2024-03-04T00:48:47.462Z,75.13
2024-03-04T00:51:15.130Z,75.36
2024-03-04T00:53:42.782Z,75.68
2024-03-04T00:56:10.350Z,75.73
2024-03-04T00:58:37.935Z,75.86
2024-03-04T01:01:05.638Z,76.06
2024-03-04T01:03:33.430Z,76.22
2024-03-04T01:06:01.401Z,76.39
2024-03-04T01:08:29.070Z,76.38
2024-03-04T01:10:56.654Z,76.41
2024-03-04T01:13:24.607Z,76.53
2024-03-04T01:15:52.159Z,76.48
2024-03-04T01:18:19.936Z,76.81
2024-03-04T01:20:47.578Z,76.98
2024-03-04T01:23:15.135Z,77.17
2024-03-04T01:25:42.759Z,77.38
2024-03-04T01:28:10.598Z,77.46
2024-03-04T01:30:38.322Z,77.49
2024-03-04T01:33:06.204Z,77.55
2024-03-04T01:35:33.860Z,77.52
2024-03-04T01:38:01.517Z,77.48
2024-03-04T01:40:29.236Z,77.34
2024-03-04T01:42:56.998Z,77.48
2024-03-04T01:45:24.643Z,77.60
2024-03-04T01:47:52.406Z,77.85
2024-03-04T01:50:20.041Z,77.38
2024-03-04T01:52:47.998Z,77.47
2024-03-04T01:55:15.767Z,77.38
2024-03-04T01:57:43.484Z,77.40
2024-03-04T02:00:11.487Z,77.22
2024-03-04T02:02:39.056Z,77.10
2024-03-04T02:05:06.740Z,77.29
2024-03-04T02:07:34.407Z,77.30
2024-03-04T02:10:02.272Z,77.37
2024-03-04T02:12:29.900Z,77.55
2024-03-04T02:14:57.665Z,77.58
2024-03-04T02:17:25.224Z,77.62
2024-03-04T02:19:52.888Z,77.74
2024-03-04T02:22:20.872Z,78.04
2024-03-04T02:24:48.420Z,78.17
2024-03-04T02:27:16.184Z,78.22
2024-03-04T02:29:43.852Z,78.32
2024-03-04T02:32:11.501Z,78.31
2024-03-04T02:34:39.077Z,78.36
2024-03-04T02:37:06.745Z,78.32
2024-03-04T02:39:34.278Z,78.32
2024-03-04T02:42:01.948Z,78.39
2024-03-04T02:44:29.495Z,78.28
2024-03-04T02:46:57.474Z,78.22
2024-03-04T02:49:25.119Z,77.96
2024-03-04T02:51:52.809Z,78.04
2024-03-04T02:54:20.356Z,78.18
2024-03-04T02:56:48.014Z,78.40
2024-03-04T02:59:15.575Z,78.52
2024-03-04T03:01:43.261Z,78.80
2024-03-04T03:04:11.061Z,79.08
2024-03-04T03:06:38.773Z,79.08
2024-03-04T03:09:06.325Z,79.17
2024-03-04T03:11:34.440Z,79.04
2024-03-04T03:14:02.161Z,79.23
2024-03-04T03:16:29.778Z,79.59
2024-03-04T03:18:57.519Z,79.81
2024-03-04T03:21:25.150Z,79.85
2024-03-04T03:23:52.816Z,79.72
2024-03-04T03:26:20.367Z,79.72
2024-03-04T03:28:48.032Z,79.98
2024-03-04T03:31:15.639Z,80.03
2024-03-04T03:33:43.450Z,80.08
2024-03-04T03:36:11.420Z,80.19
2024-03-04T03:38:39.084Z,80.10
2024-03-04T03:41:06.643Z,80.08
2024-03-04T03:43:34.234Z,80.39
2024-03-04T03:46:02.034Z,80.30
2024-03-04T03:48:29.829Z,80.16
2024-03-04T03:50:57.491Z,80.22
2024-03-04T03:53:25.053Z,80.22
2024-03-04T03:55:52.813Z,80.45
2024-03-04T03:58:20.408Z,80.36
2024-03-04T04:00:48.364Z,80.68
2024-03-04T04:03:15.899Z,80.65
2024-03-04T04:05:43.556Z,80.95
2024-03-04T04:08:11.225Z,80.95
2024-03-04T04:10:38.930Z,80.75
2024-03-04T04:13:06.799Z,80.52
2024-03-04T04:15:34.416Z,80.50
2024-03-04T04:18:02.111Z,80.31
2024-03-04T04:20:29.748Z,80.47
2024-03-04T04:22:57.297Z,80.52
2024-03-04T04:25:25.000Z,80.55
2024-03-04T04:27:52.934Z,80.53
2024-03-04T04:30:20.592Z,80.54
2024-03-04T04:32:48.180Z,80.49
2024-03-04T04:35:15.905Z,80.48
2024-03-04T04:37:43.543Z,80.58
2024-03-04T04:40:11.433Z,80.82
2024-03-04T04:42:39.203Z,81.14
2024-03-04T04:45:06.760Z,81.11
2024-03-04T04:47:34.437Z,81.04
2024-03-04T04:50:01.997Z,81.12
2024-03-04T04:52:30.132Z,81.11
2024-03-04T04:54:57.919Z,81.21
2024-03-04T04:57:25.694Z,81.24
2024-03-04T04:59:53.480Z,81.19
2024-03-04T05:02:21.008Z,81.26
2024-03-04T05:04:54.700Z,81.21
2024-03-04T05:07:25.951Z,80.93
2024-03-04T05:09:54.360Z,80.85
2024-03-04T05:12:22.221Z,80.96
2024-03-04T05:14:49.780Z,80.97
2024-03-04T05:17:17.866Z,81.06
2024-03-04T05:19:45.524Z,80.97
2024-03-04T05:22:13.201Z,80.82
2024-03-04T05:24:40.931Z,80.60
2024-03-04T05:27:08.477Z,80.43
2024-03-04T05:29:36.044Z,80.55
2024-03-04T05:32:03.699Z,80.77
2024-03-04T05:34:31.276Z,80.67
2024-03-04T05:36:58.936Z,80.49
2024-03-04T05:39:26.577Z,80.51
2024-03-04T05:41:54.446Z,80.31
2024-03-04T05:44:22.125Z,80.20
2024-03-04T05:46:49.665Z,80.14
2024-03-04T05:49:17.368Z,80.14
2024-03-04T05:51:45.098Z,79.80
2024-03-04T05:54:12.754Z,79.48
2024-03-04T05:56:40.416Z,79.31
2024-03-04T05:59:08.082Z,78.88
2024-03-04T06:01:36.025Z,78.39
2024-03-04T06:04:03.752Z,78.10
2024-03-04T06:06:31.780Z,78.08
2024-03-04T06:08:59.447Z,78.06
2024-03-04T06:11:27.116Z,78.03
2024-03-04T06:13:54.786Z,77.94
2024-03-04T06:16:22.550Z,77.73
2024-03-04T06:18:50.190Z,77.84
2024-03-04T06:21:17.749Z,77.69
2024-03-04T06:23:45.417Z,77.51
2024-03-04T06:26:13.043Z,77.24
2024-03-04T06:28:41.053Z,76.96
2024-03-04T06:31:08.968Z,76.70
2024-03-04T06:33:48.024Z,76.58
2024-03-04T06:36:21.304Z,76.13
2024-03-04T06:38:49.353Z,75.57
2024-03-04T06:41:17.069Z,75.14
2024-03-04T06:43:44.845Z,74.66
2024-03-04T06:46:12.637Z,74.25
2024-03-04T06:48:40.465Z,73.77
2024-03-04T06:51:08.017Z,73.20
2024-03-04T06:53:35.731Z,72.41
2024-03-04T06:56:03.755Z,71.32
2024-03-04T06:58:31.329Z,70.38
2024-03-04T07:00:58.982Z,68.54
2024-03-04T07:03:26.733Z,66.67
2024-03-04T07:05:54.301Z,65.91
2024-03-04T07:08:22.313Z,65.12
2024-03-04T07:10:50.069Z,63.47
2024-03-04T07:13:17.731Z,62.49
2024-03-04T07:15:45.461Z,62.30
2024-03-04T07:18:13.169Z,61.49
2024-03-04T07:20:41.314Z,60.82
2024-03-04T07:23:08.865Z,58.93
2024-03-04T07:25:36.546Z,57.61
2024-03-04T07:28:04.276Z,56.69
2024-03-04T07:30:31.946Z,54.33
2024-03-04T07:32:59.665Z,53.36
2024-03-04T07:35:27.357Z,50.63
2024-03-04T07:37:55.139Z,49.12
2024-03-04T07:40:22.694Z,47.86
2024-03-04T07:42:50.348Z,45.02
2024-03-04T07:45:18.006Z,44.71
2024-03-04T07:47:46.035Z,43.76
2024-03-04T07:50:13.638Z,41.57
2024-03-04T07:52:41.355Z,41.17
2024-03-04T07:55:09.136Z,39.73
2024-03-04T07:57:36.840Z,38.00
2024-03-04T08:00:05.520Z,37.57
2024-03-04T08:02:34.922Z,35.50
2024-03-04T08:05:02.590Z,35.84
2024-03-04T08:07:30.372Z,35.56
2024-03-04T08:09:57.919Z,36.49
2024-03-04T08:12:25.979Z,35.86
2024-03-04T08:14:53.645Z,35.19
2024-03-04T08:17:23.991Z,35.38
2024-03-04T08:19:53.685Z,35.53
2024-03-04T08:22:21.298Z,35.76
2024-03-04T08:24:49.092Z,36.25
2024-03-04T08:27:16.648Z,36.66
2024-03-04T08:29:44.327Z,36.74
2024-03-04T08:32:11.869Z,36.89
2024-03-04T08:34:40.128Z,37.61
2024-03-04T08:37:08.750Z,37.22
2024-03-04T08:39:36.405Z,36.47
2024-03-04T08:42:03.956Z,34.83
2024-03-04T08:44:31.761Z,33.39
2024-03-04T08:46:59.405Z,32.18
2024-03-04T08:49:27.053Z,30.65
2024-03-04T08:51:54.807Z,29.21
2024-03-04T08:54:22.570Z,27.93
2024-03-04T08:56:50.125Z,25.81
2024-03-04T08:59:17.785Z,23.99
2024-03-04T09:01:45.413Z,23.75
2024-03-04T09:04:13.682Z,23.62
2024-03-04T09:06:41.390Z,23.87
2024-03-04T09:09:08.951Z,23.20
2024-03-04T09:11:36.766Z,22.63
2024-03-04T09:14:04.373Z,22.40
2024-03-04T09:16:32.039Z,21.78
2024-03-04T09:18:59.689Z,21.83
2024-03-04T09:21:27.255Z,21.17
2024-03-04T09:23:54.918Z,21.00
2024-03-04T09:26:22.572Z,20.99
2024-03-04T09:28:50.147Z,20.53
2024-03-04T09:31:18.424Z,19.96
2024-03-04T09:33:45.974Z,20.02
2024-03-04T09:36:13.825Z,20.03
2024-03-04T09:38:41.498Z,19.55
2024-03-04T09:41:09.277Z,19.56
2024-03-04T09:43:36.848Z,19.73
2024-03-04T09:46:04.597Z,19.42
2024-03-04T09:48:32.256Z,19.19
2024-03-04T09:50:59.908Z,19.32
2024-03-04T09:53:27.470Z,19.09
2024-03-04T09:55:55.574Z,18.50
2024-03-04T09:58:23.273Z,18.42
2024-03-04T10:00:51.100Z,18.50
2024-03-04T10:03:19.043Z,18.53
2024-03-04T10:05:46.690Z,17.99
2024-03-04T10:08:14.270Z,18.41
2024-03-04T10:10:41.968Z,17.89
2024-03-04T10:13:09.920Z,17.75
2024-03-04T10:15:37.552Z,17.19
2024-03-04T10:18:05.130Z,16.94
2024-03-04T10:20:33.078Z,17.37
2024-03-04T10:23:00.745Z,17.20
2024-03-04T10:25:28.363Z,17.33
2024-03-04T10:27:56.065Z,16.86
2024-03-04T10:30:25.348Z,16.62
2024-03-04T10:32:54.072Z,16.63
2024-03-04T10:35:21.811Z,16.33
2024-03-04T10:37:49.518Z,15.70
2024-03-04T10:40:17.163Z,16.01
2024-03-04T10:42:44.907Z,15.26
2024-03-04T10:45:12.769Z,14.97
2024-03-04T10:47:40.458Z,14.81
2024-03-04T10:50:08.198Z,15.31
2024-03-04T10:52:35.875Z,15.46
2024-03-04T10:55:03.475Z,15.49
2024-03-04T10:57:31.296Z,15.04
2024-03-04T10:59:59.104Z,14.61
2024-03-04T11:02:27.014Z,13.99
2024-03-04T11:04:54.712Z,14.19
2024-03-04T11:07:22.368Z,13.79
2024-03-04T11:09:50.306Z,13.79
2024-03-04T11:12:17.867Z,13.52
2024-03-04T11:14:45.525Z,13.84
2024-03-04T11:17:13.243Z,13.75
2024-03-04T11:19:41.161Z,13.34
2024-03-04T11:22:08.960Z,13.56
2024-03-04T11:24:36.682Z,13.63
2024-03-04T11:27:04.355Z,13.45
2024-03-04T11:29:32.111Z,13.43
2024-03-04T11:31:59.672Z,13.22
2024-03-04T11:34:27.499Z,13.29
2024-03-04T11:36:55.298Z,13.08
2024-03-04T11:39:23.135Z,12.81
2024-03-04T11:41:50.845Z,12.87
2024-03-04T11:44:18.379Z,13.29
2024-03-04T11:46:46.173Z,12.37
2024-03-04T11:49:13.830Z,12.10
2024-03-04T11:51:41.577Z,10.89
2024-03-04T11:54:09.133Z,11.27
2024-03-04T11:56:39.270Z,11.43
2024-03-04T11:59:09.575Z,11.66
2024-03-04T12:01:37.296Z,10.71
2024-03-04T12:04:04.939Z,11.17
2024-03-04T12:06:32.459Z,11.53
2024-03-04T12:09:17.784Z,12.31
2024-03-04T12:11:47.633Z,13.19
2024-03-04T12:14:15.412Z,13.66
2024-03-04T12:16:43.331Z,14.38
2024-03-04T12:19:11.070Z,15.50
2024-03-04T12:21:38.713Z,16.63
2024-03-04T12:24:06.674Z,17.79
2024-03-04T12:26:34.237Z,18.73
2024-03-04T12:29:01.903Z,18.80
2024-03-04T12:31:29.590Z,18.70
2024-03-04T12:33:57.326Z,18.47
2024-03-04T12:36:25.001Z,17.91
2024-03-04T12:38:52.537Z,17.25
2024-03-04T12:41:20.094Z,16.66
2024-03-04T12:43:47.783Z,16.93
2024-03-04T12:46:15.341Z,16.91
2024-03-04T12:48:43.285Z,17.26
2024-03-04T12:51:10.856Z,17.16
2024-03-04T12:53:38.512Z,16.92
2024-03-04T12:56:06.072Z,16.91
2024-03-04T12:58:33.640Z,16.97
2024-03-04T13:01:01.541Z,16.86
2024-03-04T13:03:29.156Z,16.79
2024-03-04T13:05:56.820Z,16.69
2024-03-04T13:08:24.485Z,17.41
2024-03-04T13:10:52.312Z,17.86
2024-03-04T13:13:20.344Z,17.88
2024-03-04T13:15:47.978Z,17.84
2024-03-04T13:18:15.553Z,18.69
2024-03-04T13:20:43.207Z,18.83
2024-03-04T13:23:10.760Z,18.72
2024-03-04T13:25:38.456Z,17.58
2024-03-04T13:28:06.143Z,16.82
2024-03-04T13:30:33.738Z,16.44
2024-03-04T13:33:01.479Z,16.85
2024-03-04T13:35:29.270Z,17.44
2024-03-04T13:37:57.254Z,18.16
2024-03-04T13:40:24.933Z,18.12
2024-03-04T13:42:53.336Z,17.78
2024-03-04T13:45:22.679Z,18.32
2024-03-04T13:47:50.248Z,19.18
2024-03-04T13:50:17.915Z,19.81
2024-03-04T13:52:45.481Z,20.75
2024-03-04T13:55:13.078Z,21.53
2024-03-04T13:57:40.788Z,22.27
2024-03-04T14:00:08.862Z,22.20
2024-03-04T14:02:36.426Z,22.36
2024-03-04T14:05:04.078Z,22.79
2024-03-04T14:07:31.769Z,22.65
2024-03-04T14:09:59.405Z,22.48
2024-03-04T14:12:26.961Z,23.08
2024-03-04T14:14:54.523Z,23.37
2024-03-04T14:17:22.332Z,24.14
2024-03-04T14:19:50.129Z,24.76
2024-03-04T14:22:17.842Z,25.21
2024-03-04T14:24:45.474Z,25.86
2024-03-04T14:27:13.461Z,27.16
2024-03-04T14:29:41.113Z,28.54
2024-03-04T14:32:08.749Z,29.49
2024-03-04T14:34:36.581Z,30.47
2024-03-04T14:37:04.340Z,31.61
2024-03-04T14:39:31.960Z,32.28
2024-03-04T14:41:59.718Z,32.69
2024-03-04T14:44:27.391Z,33.57
2024-03-04T14:46:55.140Z,34.18
2024-03-04T14:49:22.870Z,34.45
2024-03-04T14:51:50.879Z,34.95
2024-03-04T14:54:18.433Z,35.45
2024-03-04T14:56:46.105Z,35.88
2024-03-04T14:59:13.663Z,36.22
2024-03-04T15:01:41.329Z,36.54
2024-03-04T15:04:08.895Z,36.85
2024-03-04T15:06:36.862Z,37.53
2024-03-04T15:09:04.505Z,38.20
2024-03-04T15:11:32.228Z,38.21
2024-03-04T15:14:00.193Z,37.05
2024-03-04T15:16:28.276Z,36.59
2024-03-04T15:18:55.977Z,36.59
2024-03-04T15:21:23.645Z,36.63
2024-03-04T15:23:51.292Z,37.17
2024-03-04T15:26:18.848Z,37.38
2024-03-04T15:28:46.599Z,37.87
2024-03-04T15:31:14.320Z,38.47
2024-03-04T15:33:41.937Z,39.41
2024-03-04T15:36:17.683Z,40.17
2024-03-04T15:38:49.056Z,41.23
2024-03-04T15:41:16.702Z,42.00
2024-03-04T15:43:44.531Z,42.75
2024-03-04T15:46:12.355Z,43.35
2024-03-04T15:48:40.303Z,44.11
2024-03-04T15:51:08.073Z,44.96
2024-03-04T15:53:35.620Z,45.62
2024-03-04T15:56:03.333Z,46.42
2024-03-04T15:58:31.134Z,47.13
2024-03-04T16:00:59.043Z,47.70
2024-03-04T16:03:27.008Z,48.25
2024-03-04T16:05:54.558Z,48.71
2024-03-04T16:08:22.115Z,49.31
2024-03-04T16:10:49.895Z,49.92
2024-03-04T16:13:17.651Z,50.46
2024-03-04T16:15:52.509Z,50.97
2024-03-04T16:18:22.065Z,51.74
2024-03-04T16:20:49.734Z,52.47
2024-03-04T16:23:17.291Z,53.14
2024-03-04T16:25:44.904Z,53.57
2024-03-04T16:28:12.695Z,54.46
2024-03-04T16:30:40.778Z,55.31
2024-03-04T16:33:08.691Z,55.83
2024-03-04T16:35:36.430Z,56.38
2024-03-04T16:38:04.135Z,56.91
2024-03-04T16:40:31.783Z,57.40
2024-03-04T16:42:59.501Z,58.00
2024-03-04T16:45:27.097Z,58.45
2024-03-04T16:47:54.771Z,58.73
2024-03-04T16:50:22.522Z,59.25
2024-03-04T16:52:50.665Z,59.51
2024-03-04T16:55:18.359Z,59.57
2024-03-04T16:57:46.195Z,59.72
2024-03-04T17:00:13.856Z,60.05
2024-03-04T17:02:41.720Z,60.11
2024-03-04T17:05:09.489Z,60.40
2024-03-04T17:07:37.047Z,60.68
2024-03-04T17:10:04.745Z,60.84
2024-03-04T17:12:32.397Z,60.84
2024-03-04T17:14:59.927Z,60.99
2024-03-04T17:17:27.628Z,61.08
2024-03-04T17:19:55.284Z,61.21
2024-03-04T17:22:23.352Z,61.39
2024-03-04T17:24:51.088Z,61.57
2024-03-04T17:27:18.745Z,61.58
2024-03-04T17:29:46.316Z,61.66
2024-03-04T17:32:13.872Z,61.92
2024-03-04T17:34:41.547Z,61.95
2024-03-04T17:37:09.104Z,62.06
2024-03-04T17:39:36.860Z,62.09
2024-03-04T17:42:04.617Z,62.37
2024-03-04T17:44:32.286Z,62.56
2024-03-04T17:47:00.312Z,62.75
2024-03-04T17:49:28.182Z,62.93
2024-03-04T17:51:55.771Z,63.39
2024-03-04T17:54:23.332Z,63.55
2024-03-04T17:56:51.021Z,63.67
2024-03-04T17:59:18.772Z,63.94
2024-03-04T18:01:46.665Z,64.09
2024-03-04T18:04:14.290Z,64.27
2024-03-04T18:06:41.951Z,64.51
2024-03-04T18:09:09.502Z,64.65
2024-03-04T18:11:37.276Z,64.83
2024-03-04T18:14:05.238Z,65.05
2024-03-04T18:16:32.944Z,65.21
2024-03-04T18:19:00.771Z,65.44
2024-03-04T18:21:28.427Z,65.61
2024-03-04T18:23:55.989Z,65.65
2024-03-04T18:26:23.554Z,65.76
2024-03-04T18:28:51.249Z,65.91
2024-03-04T18:31:18.885Z,66.24
2024-03-04T18:33:46.476Z,66.35
2024-03-04T18:36:14.195Z,66.61
2024-03-04T18:38:42.060Z,66.82
2024-03-04T18:41:09.723Z,66.86
2024-03-04T18:43:37.318Z,66.93
2024-03-04T18:46:04.938Z,67.23
2024-03-04T18:48:32.602Z,67.16
2024-03-04T18:51:00.158Z,67.21
2024-03-04T18:53:27.724Z,67.26
2024-03-04T18:55:55.444Z,67.37
2024-03-04T18:58:23.159Z,67.53
2024-03-04T19:00:50.867Z,67.60
2024-03-04T19:03:18.891Z,67.54
2024-03-04T19:05:46.543Z,67.77
2024-03-04T19:08:14.308Z,67.68
2024-03-04T19:10:41.884Z,67.83
2024-03-04T19:13:09.632Z,68.00
2024-03-04T19:15:38.218Z,67.93
2024-03-04T19:18:06.078Z,68.14
2024-03-04T19:20:33.642Z,68.23
2024-03-04T19:23:01.196Z,68.39
2024-03-04T19:25:28.883Z,68.46
2024-03-04T19:27:56.525Z,68.61
2024-03-04T19:30:24.412Z,68.85
2024-03-04T19:32:52.100Z,69.01
2024-03-04T19:35:19.919Z,69.13
2024-03-04T19:37:47.534Z,69.50
2024-03-04T19:40:15.454Z,69.59
2024-03-04T19:42:43.109Z,69.78
2024-03-04T19:45:10.774Z,69.86
2024-03-04T19:47:38.358Z,69.80
2024-03-04T19:50:06.095Z,69.86
2024-03-04T19:52:33.684Z,69.98
2024-03-04T19:55:01.722Z,70.02
2024-03-04T19:57:36.013Z,69.89
2024-03-04T20:00:08.618Z,69.86
2024-03-04T20:02:36.183Z,69.98
2024-03-04T20:05:04.006Z,70.14
2024-03-04T20:07:31.877Z,70.24
2024-03-04T20:09:59.576Z,70.45
2024-03-04T20:12:28.136Z,70.53
2024-03-04T20:14:57.457Z,70.60
2024-03-04T20:17:25.356Z,70.69
2024-03-04T20:19:53.058Z,70.91
2024-03-04T20:22:20.792Z,71.00
2024-03-04T20:24:48.506Z,71.06
2024-03-04T20:27:16.074Z,71.12
2024-03-04T20:29:43.624Z,71.05
2024-03-04T20:32:11.390Z,71.22
2024-03-04T20:34:39.072Z,71.27
2024-03-04T20:37:06.809Z,71.43
2024-03-04T20:39:34.474Z,71.39
2024-03-04T20:42:03.639Z,71.44
2024-03-04T20:44:31.542Z,71.51
2024-03-04T20:46:59.147Z,71.69
2024-03-04T20:49:27.022Z,71.78
2024-03-04T20:51:54.625Z,71.80
2024-03-04T20:54:22.293Z,71.93
2024-03-04T20:56:50.069Z,71.96
2024-03-04T20:59:17.716Z,71.96
2024-03-04T21:01:45.396Z,72.01
2024-03-04T21:04:13.074Z,72.15
2024-03-04T21:06:41.006Z,72.16
2024-03-04T21:09:08.568Z,72.38
2024-03-04T21:11:36.263Z,72.31
2024-03-04T21:14:03.786Z,72.38
2024-03-04T21:16:31.489Z,72.36
2024-03-04T21:18:59.111Z,72.38
2024-03-04T21:21:26.784Z,72.48
2024-03-04T21:23:54.530Z,72.59
2024-03-04T21:26:22.097Z,72.63
2024-03-04T21:28:49.837Z,72.77
2024-03-04T21:31:17.560Z,72.75
2024-03-04T21:33:45.598Z,72.80
2024-03-04T21:36:13.258Z,72.88
2024-03-04T21:38:40.816Z,72.84
2024-03-04T21:41:08.470Z,72.90
2024-03-04T21:43:36.062Z,72.86
2024-03-04T21:46:03.789Z,72.93
2024-03-04T21:48:31.469Z,72.91
2024-03-04T21:50:59.016Z,73.07
2024-03-04T21:53:26.689Z,73.15
2024-03-04T21:55:54.403Z,73.04
2024-03-04T21:58:22.217Z,73.06
2024-03-04T22:00:49.815Z,73.19
2024-03-04T22:03:17.437Z,73.17
2024-03-04T22:05:44.988Z,73.21
2024-03-04T22:08:12.654Z,73.26
2024-03-04T22:10:40.323Z,73.28
2024-03-04T22:13:08.076Z,73.27
2024-03-04T22:15:35.651Z,73.27
2024-03-04T22:18:03.341Z,73.20
2024-03-04T22:20:30.955Z,73.32
2024-03-04T22:22:59.033Z,73.21
2024-03-04T22:25:26.742Z,73.10
2024-03-04T22:27:54.558Z,73.17
2024-03-04T22:30:22.130Z,73.12
2024-03-04T22:32:49.837Z,73.13
2024-03-04T22:35:17.518Z,73.11
2024-03-04T22:37:45.358Z,73.18
2024-03-04T22:40:13.158Z,73.29
2024-03-04T22:42:40.940Z,73.22
2024-03-04T22:45:08.517Z,73.35
2024-03-04T22:47:36.591Z,73.47
2024-03-04T22:50:04.197Z,73.55
2024-03-04T22:52:32.039Z,73.63
2024-03-04T22:54:59.664Z,73.69
2024-03-04T22:57:27.321Z,73.63
2024-03-04T22:59:54.874Z,73.62
2024-03-04T23:02:22.495Z,73.54
2024-03-04T23:04:50.260Z,73.57
2024-03-04T23:07:17.973Z,73.67
2024-03-04T23:09:45.624Z,73.74
2024-03-04T23:12:13.589Z,73.73
2024-03-04T23:14:41.361Z,73.81
2024-03-04T23:17:08.912Z,74.00
2024-03-04T23:19:36.683Z,74.07
2024-03-04T23:22:04.743Z,74.04
2024-03-04T23:24:32.414Z,74.11
2024-03-04T23:27:00.281Z,74.33
2024-03-04T23:29:28.053Z,74.29
2024-03-04T23:31:56.176Z,74.39
2024-03-04T23:34:23.921Z,74.52
2024-03-04T23:36:51.847Z,74.51
2024-03-04T23:39:19.503Z,74.47
2024-03-04T23:41:47.069Z,74.49
2024-03-04T23:44:14.723Z,74.59
2024-03-04T23:46:42.351Z,74.65
2024-03-04T23:49:10.081Z,74.58
2024-03-04T23:51:38.334Z,74.58
2024-03-04T23:54:06.093Z,74.62
2024-03-04T23:56:33.748Z,74.52
2024-03-04T23:59:01.397Z,74.58
